sensor_id;sensor_type;location;lat;lon;timestamp;P1;durP1;ratioP1;P2;durP2;ratioP2
57321;SDS011;43159;51.006;18.224;2022-11-04T00:06:23;19.40;;;7.60;;
57321;SDS011;43159;51.006;18.224;2022-11-04T00:32:52;16.60;;;6.30;;
57321;SDS011;43159;51.006;18.224;2022-11-04T00:42:53;18.10;;;8.40;;
57321;SDS011;43159;51.006;18.224;2022-11-04T00:52:35;13.80;;;6.50;;
57321;SDS011;43159;51.006;18.224;2022-11-04T01:02:16;23.40;;;6.30;;
57321;SDS011;43159;51.006;18.224;2022-11-04T01:11:58;18.30;;;6.50;;
57321;SDS011;43159;51.006;18.224;2022-11-04T01:21:41;19.70;;;7.40;;
57321;SDS011;43159;51.006;18.224;2022-11-04T01:31:27;14.80;;;6.50;;
57321;SDS011;43159;51.006;18.224;2022-11-04T01:41:19;16.60;;;7.80;;
57321;SDS011;43159;51.006;18.224;2022-11-04T01:51:34;22.10;;;8.10;;
57321;SDS011;43159;51.006;18.224;2022-11-04T02:01:18;13.90;;;5.70;;
57321;SDS011;43159;51.006;18.224;2022-11-04T02:11:11;17.70;;;9.10;;
57321;SDS011;43159;51.006;18.224;2022-11-04T02:21:35;25.10;;;7.70;;
57321;SDS011;43159;51.006;18.224;2022-11-04T03:02:38;15.00;;;6.90;;
57321;SDS011;43159;51.006;18.224;2022-11-04T03:12:26;17.20;;;6.50;;
57321;SDS011;43159;51.006;18.224;2022-11-04T03:22:21;16.10;;;6.50;;
57321;SDS011;43159;51.006;18.224;2022-11-04T03:32:27;17.20;;;6.90;;
57321;SDS011;43159;51.006;18.224;2022-11-04T03:42:17;18.00;;;7.00;;
57321;SDS011;43159;51.006;18.224;2022-11-04T03:52:07;14.90;;;6.80;;
57321;SDS011;43159;51.006;18.224;2022-11-04T04:02:15;18.60;;;6.40;;
57321;SDS011;43159;51.006;18.224;2022-11-04T04:22:43;17.40;;;7.30;;
57321;SDS011;43159;51.006;18.224;2022-11-04T04:43:40;15.50;;;6.30;;
57321;SDS011;43159;51.006;18.224;2022-11-04T04:53:43;16.70;;;6.30;;
57321;SDS011;43159;51.006;18.224;2022-11-04T05:03:25;15.60;;;7.00;;
57321;SDS011;43159;51.006;18.224;2022-11-04T05:13:08;14.10;;;7.90;;
57321;SDS011;43159;51.006;18.224;2022-11-04T05:23:17;24.40;;;9.30;;
57321;SDS011;43159;51.006;18.224;2022-11-04T05:32:59;17.70;;;7.20;;
57321;SDS011;43159;51.006;18.224;2022-11-04T05:42:41;11.30;;;5.00;;
57321;SDS011;43159;51.006;18.224;2022-11-04T05:52:24;18.00;;;7.30;;
57321;SDS011;43159;51.006;18.224;2022-11-04T06:02:06;14.90;;;6.30;;
57321;SDS011;43159;51.006;18.224;2022-11-04T06:12:10;19.60;;;6.20;;
57321;SDS011;43159;51.006;18.224;2022-11-04T06:21:56;14.30;;;6.80;;
57321;SDS011;43159;51.006;18.224;2022-11-04T06:31:38;22.60;;;6.20;;
57321;SDS011;43159;51.006;18.224;2022-11-04T06:41:19;14.30;;;6.10;;
57321;SDS011;43159;51.006;18.224;2022-11-04T06:51:21;14.40;;;6.40;;
57321;SDS011;43159;51.006;18.224;2022-11-04T07:01:03;9.50;;;3.10;;
57321;SDS011;43159;51.006;18.224;2022-11-04T07:10:45;16.30;;;7.00;;
57321;SDS011;43159;51.006;18.224;2022-11-04T07:20:32;15.40;;;6.20;;
57321;SDS011;43159;51.006;18.224;2022-11-04T07:30:16;13.90;;;5.70;;
57321;SDS011;43159;51.006;18.224;2022-11-04T07:40:01;24.60;;;5.20;;
57321;SDS011;43159;51.006;18.224;2022-11-04T07:49:43;15.40;;;6.30;;
57321;SDS011;43159;51.006;18.224;2022-11-04T07:59:25;17.20;;;6.40;;
57321;SDS011;43159;51.006;18.224;2022-11-04T08:09:09;12.90;;;5.80;;
57321;SDS011;43159;51.006;18.224;2022-11-04T08:18:53;17.00;;;7.10;;
57321;SDS011;43159;51.006;18.224;2022-11-04T08:28:38;15.80;;;4.60;;
57321;SDS011;43159;51.006;18.224;2022-11-04T08:38:33;14.60;;;6.70;;
57321;SDS011;43159;51.006;18.224;2022-11-04T08:48:17;22.20;;;4.90;;
57321;SDS011;43159;51.006;18.224;2022-11-04T09:05:16;14.20;;;7.50;;
57321;SDS011;43159;51.006;18.224;2022-11-04T09:22:17;11.90;;;5.20;;
57321;SDS011;43159;51.006;18.224;2022-11-04T09:32:03;12.80;;;4.90;;
57321;SDS011;43159;51.006;18.224;2022-11-04T09:51:59;15.60;;;6.10;;
57321;SDS011;43159;51.006;18.224;2022-11-04T10:01:55;13.30;;;5.70;;
57321;SDS011;43159;51.006;18.224;2022-11-04T10:22:58;18.90;;;8.40;;
57321;SDS011;43159;51.006;18.224;2022-11-04T10:33:25;13.90;;;7.60;;
57321;SDS011;43159;51.006;18.224;2022-11-04T10:43:32;15.40;;;7.80;;
57321;SDS011;43159;51.006;18.224;2022-11-04T10:53:53;20.20;;;9.30;;
57321;SDS011;43159;51.006;18.224;2022-11-04T11:11:47;20.50;;;11.00;;
57321;SDS011;43159;51.006;18.224;2022-11-04T11:21:40;16.40;;;9.10;;
57321;SDS011;43159;51.006;18.224;2022-11-04T11:31:35;25.60;;;10.30;;
57321;SDS011;43159;51.006;18.224;2022-11-04T11:41:21;20.60;;;11.60;;
57321;SDS011;43159;51.006;18.224;2022-11-04T11:51:27;19.50;;;10.00;;
57321;SDS011;43159;51.006;18.224;2022-11-04T12:22:00;17.80;;;10.70;;
57321;SDS011;43159;51.006;18.224;2022-11-04T12:32:26;23.70;;;10.00;;
57321;SDS011;43159;51.006;18.224;2022-11-04T13:03:48;21.30;;;11.20;;
57321;SDS011;43159;51.006;18.224;2022-11-04T13:14:37;26.60;;;11.90;;
57321;SDS011;43159;51.006;18.224;2022-11-04T13:31:58;26.60;;;12.00;;
57321;SDS011;43159;51.006;18.224;2022-11-04T14:22:24;14.60;;;7.20;;
57321;SDS011;43159;51.006;18.224;2022-11-04T14:32:29;17.10;;;8.30;;
57321;SDS011;43159;51.006;18.224;2022-11-04T14:42:39;19.50;;;9.70;;
57321;SDS011;43159;51.006;18.224;2022-11-04T14:52:37;19.80;;;9.90;;
57321;SDS011;43159;51.006;18.224;2022-11-04T15:02:44;18.20;;;9.50;;
57321;SDS011;43159;51.006;18.224;2022-11-04T15:12:44;22.30;;;11.10;;
57321;SDS011;43159;51.006;18.224;2022-11-04T15:22:57;23.80;;;12.70;;
57321;SDS011;43159;51.006;18.224;2022-11-04T15:27:50;29.80;;;17.00;;
57321;SDS011;43159;51.006;18.224;2022-11-04T15:37:48;29.20;;;12.60;;
57321;SDS011;43159;51.006;18.224;2022-11-04T15:58:18;23.40;;;10.50;;
57321;SDS011;43159;51.006;18.224;2022-11-04T16:18:24;25.80;;;12.70;;
57321;SDS011;43159;51.006;18.224;2022-11-04T16:28:24;28.70;;;16.10;;
57321;SDS011;43159;51.006;18.224;2022-11-04T16:45:33;24.70;;;13.30;;
57321;SDS011;43159;51.006;18.224;2022-11-04T16:55:18;37.10;;;21.30;;
57321;SDS011;43159;51.006;18.224;2022-11-04T17:12:40;12.80;;;5.30;;
57321;SDS011;43159;51.006;18.224;2022-11-04T17:22:43;23.90;;;13.00;;
57321;SDS011;43159;51.006;18.224;2022-11-04T17:39:56;36.50;;;20.80;;
57321;SDS011;43159;51.006;18.224;2022-11-04T17:57:33;73.50;;;31.70;;
57321;SDS011;43159;51.006;18.224;2022-11-04T18:07:33;66.80;;;28.90;;
57321;SDS011;43159;51.006;18.224;2022-11-04T18:17:41;41.20;;;21.90;;
57321;SDS011;43159;51.006;18.224;2022-11-04T18:27:29;48.90;;;22.10;;
57321;SDS011;43159;51.006;18.224;2022-11-04T18:37:12;30.80;;;12.40;;
57321;SDS011;43159;51.006;18.224;2022-11-04T18:47:01;39.00;;;24.00;;
57321;SDS011;43159;51.006;18.224;2022-11-04T18:56:44;55.60;;;25.80;;
57321;SDS011;43159;51.006;18.224;2022-11-04T19:13:50;45.90;;;23.90;;
57321;SDS011;43159;51.006;18.224;2022-11-04T19:23:35;49.90;;;28.40;;
57321;SDS011;43159;51.006;18.224;2022-11-04T19:40:47;58.40;;;27.90;;
57321;SDS011;43159;51.006;18.224;2022-11-04T19:50:41;47.20;;;24.60;;
57321;SDS011;43159;51.006;18.224;2022-11-04T20:00:28;52.50;;;26.60;;
57321;SDS011;43159;51.006;18.224;2022-11-04T20:10:13;39.90;;;23.10;;
57321;SDS011;43159;51.006;18.224;2022-11-04T20:20:18;59.90;;;23.50;;
57321;SDS011;43159;51.006;18.224;2022-11-04T20:30:01;68.10;;;16.10;;
57321;SDS011;43159;51.006;18.224;2022-11-04T20:39:46;55.70;;;23.90;;
57321;SDS011;43159;51.006;18.224;2022-11-04T20:49:29;41.50;;;21.50;;
57321;SDS011;43159;51.006;18.224;2022-11-04T20:59:12;31.20;;;18.80;;
57321;SDS011;43159;51.006;18.224;2022-11-04T21:08:57;44.00;;;20.10;;
57321;SDS011;43159;51.006;18.224;2022-11-04T21:18:41;37.00;;;20.70;;
57321;SDS011;43159;51.006;18.224;2022-11-04T21:28:32;36.20;;;22.30;;
57321;SDS011;43159;51.006;18.224;2022-11-04T21:38:19;30.30;;;17.80;;
57321;SDS011;43159;51.006;18.224;2022-11-04T21:48:02;35.00;;;16.10;;
57321;SDS011;43159;51.006;18.224;2022-11-04T21:57:44;35.20;;;18.00;;
57321;SDS011;43159;51.006;18.224;2022-11-04T22:07:42;33.70;;;19.20;;
57321;SDS011;43159;51.006;18.224;2022-11-04T22:18:13;38.90;;;19.00;;
57321;SDS011;43159;51.006;18.224;2022-11-04T22:27:56;28.10;;;14.70;;
57321;SDS011;43159;51.006;18.224;2022-11-04T22:37:38;27.60;;;15.00;;
57321;SDS011;43159;51.006;18.224;2022-11-04T22:47:21;24.80;;;14.20;;
57321;SDS011;43159;51.006;18.224;2022-11-04T22:57:04;22.30;;;11.00;;
57321;SDS011;43159;51.006;18.224;2022-11-04T23:14:22;12.90;;;6.40;;
57321;SDS011;43159;51.006;18.224;2022-11-04T23:25:08;18.90;;;9.10;;
57321;SDS011;43159;51.006;18.224;2022-11-04T23:35:18;16.90;;;8.10;;
57321;SDS011;43159;51.006;18.224;2022-11-04T23:45:21;16.40;;;6.90;;
57321;SDS011;43159;51.006;18.224;2022-11-04T23:56:21;13.30;;;4.30;;
